Colorado AWOS List, Phone Numbers, Maps

USA |  
| Search AWOS

Rocky Mountain States: Montana | Wyoming | Colorado | New Mexico

Complete weather reports: Colorado

Legend: KFNL = METAR available Follow your local AWOS on AV Mobile = METAR available on AV Mobile
Station Colorado Location Frequency Phone
KAKOFAA ID AKO, ASOS, KAKO 310253Z AUTO 08005KT 10SM CLR 08/M03 A3039 RMK AO2 SLP288 T00781028 51014 Follow KAKO on AV Mobile COLORADO PLAINS REGIONAL 135.475 970-345-2320
KALSFAA ID ALS, ASOS, KALS 310252Z AUTO 10006KT 10SM CLR 04/M07 A3036 Follow KALS on AV Mobile SAN LUIS VALLEY REGIONAL 135.175 719-589-5669
KASEFAA ID ASE, ASOS, KASE 310253Z AUTO 21007KT 10SM CLR 04/M05 A3039 Follow KASE on AV Mobile ASPEN-PITKIN COUNTY AIRPORT 120.400 970-925-9168
KBKFFAA ID BKF, KBKF 310258Z 14009KT 10SM CLR 05/M02 A3040 Follow KBKF on AV Mobile Aurora, Buckley Air Force Base Airport
K7BMFAA ID 7BM, AWOS-3, K7BM 310334Z AUTO 00000KT 10SM CLR 06/M08 A3051 RMK AO2 Follow K7BM on AV Mobile Cottonwood Pass 132.050 303-512-4919
KBDUFAA ID BDU, AWOS-3, KBDU 310336Z AUTO 00000KT 10SM CLR 07/M02 A3040 RMK AO2 Follow KBDU on AV Mobile Boulder Municipal Airport 118.825 303-541-9540
KAEJFAA ID AEJ, AWOS-3, KAEJ 310335Z AUTO 07005KT 10SM CLR 05/M06 A3046 RMK AO2 T00491060 Follow KAEJ on AV Mobile Central Colorado Regional Airport 132.925 719-395-2599
KITRFAA ID ITR, ASOS, KITR 310253Z AUTO 03008KT 10SM CLR 08/M04 A3039 RMK AO2 SLP279 T00831039 52016 Follow KITR on AV Mobile Kit Carson County Airport 135.225 719-346-7036
K1V6FAA ID 1V6, AWOS-3, K1V6 310335Z AUTO 01007KT 10SM CLR 08/M03 A3041 RMK AO2 Follow K1V6 on AV Mobile CANON CITY 120.025
KAFFFAA ID AFF, KAFF 310258Z AUTO 34006KT 10SM CLR 01/M05 A3043 RMK AO2 SLP312 T00121055 52014 Follow KAFF on AV Mobile Air Force Academy
KCOSFAA ID COS, ASOS, KCOS 310254Z 00000KT 10SM CLR 09/M04 A3043 Follow KCOS on AV Mobile COLORADO SPRINGS MUNI 125.000 719-637-9696
KFLYFAA ID FLY, AWOS-3PT, KFLY 310333Z AUTO 04003KT 10SM CLR 04/M05 A3046 RMK AO2 T00421050 Follow KFLY on AV Mobile Meadowlake Airport, Peyton, CO 118.450 719-683-5371
KCCUFAA ID CCU, AWOS-3, KCCU 310337Z AUTO 17014KT CLR 03/M09 A3058 RMK AO2 PWINO Follow KCCU on AV Mobile Copper Mountain, Red Cliff Pass 118.075 970-968-1715
KCEZFAA ID CEZ, ASOS, KCEZ 310253Z AUTO 08008KT 10SM CLR 05/M04 A3028 RMK AO2 SLP240 T00501044 53006 Follow KCEZ on AV Mobile CORTEZ MONTEZUMA COUNTY AIRPORT 135.625 970-564-0193
KCAGFAA ID CAG, ASOS, KCAG 310253Z AUTO 00000KT 10SM CLR 02/M02 A3033 Follow KCAG on AV Mobile CRAIG MOFFAT AIRPORT 135.425 970-824-2373
KAJZFAA ID AJZ, AWOS-3, KAJZ 310335Z AUTO 07003KT 10SM CLR 09/M04 A3027 RMK AO2 T00901045 Follow KAJZ on AV Mobile Blake Field Airport 134.000 970-874-3251
KDNRICAO ID KDNR Denver / Stapleton International, Co.
KAPAFAA ID APA, ASOS, KAPA 310253Z 16008KT 10SM FEW140 08/M03 A3040 RMK AO2 SLP285 T00831028 51012 Follow KAPA on AV Mobile DENVER CENTENNIAL AIRPORT 120.300 303-706-9098
KDENFAA ID DEN, ASOS, KDEN 310253Z 16009KT 10SM CLR 05/M03 A3039 Follow KDEN on AV Mobile DENVER INTERNATIONAL AIRPORT 125.600 303-342-0838
KFTGFAA ID FTG, AWOS-3, KFTG 310340Z AUTO 15009KT 10SM CLR 06/M01 A3040 RMK AO2 Follow KFTG on AV Mobile Front Range Airport 119.025 303-261-9104
KBJCFAA ID BJC, AWOS-3, KBJC 310251Z 00000KT 30SM SKC 10/M02 A3040 Follow KBJC on AV Mobile Rocky Mountain Metro Airport 126.250 720-887-8067
K4V5ICAO ID K4V5 Durango Aviation Weather Reporting Station
KDROFAA ID DRO, ASOS, KDRO 310253Z AUTO 02004KT 10SM CLR 07/M03 A3032 RMK AO2 SLP264 T00671033 52005 Follow KDRO on AV Mobile DURANGO-LA PLATA COUNTY AIRPORT 120.625 970-259-3579
KEGEFAA ID EGE, AWOS-3, KEGE 310335Z AUTO 12003KT 10SM CLR 04/M04 A3038 Follow KEGE on AV Mobile Eagle County Regional 135.575 970-524-7386
CO90FAA ID CO90, ASOS, K2V5 310355Z AUTO 06004KT 10SM CLR 06/M02 A3041 RMK AO2 T00581016 Follow  on AV Mobile USAF Academy Bullseye Aux Airstrip 118.325 719-683-3346
K0COFAA ID 0CO, AWOS-3, K0CO 310330Z AUTO 27006KT 10SM CLR M01/M03 A3060 RMK AO2 Follow K0CO on AV Mobile EMPIRE 134.325
KEIKFAA ID EIK, AWOS-3, KEIK 310335Z AUTO 00000KT 10SM CLR 04/M02 A3039 RMK AO2 T00431016 Follow KEIK on AV Mobile Erie Municipal Airport 133.825 303-604-4339
KFCSFAA ID FCS, KFCS 310258Z AUTO 24007KT 10SM CLR 08/M04 A3041 RMK AO2 SLP300 T00811043 52015 Follow KFCS on AV Mobile Fort Carson
KFCLICAO ID KFCL Fort Collins Supplementary Aviation Weather Reporting Station
KFNLFAA ID FNL, AWOS-3, KFNL 310335Z AUTO 21003KT 10SM CLR 09/M02 A3041 RMK AO1 Follow KFNL on AV Mobile Fort Collins/Loveland, Fort Collins-Loveland Municipal Airport 135.075 970-669-9187
KFMMFAA ID FMM, AWOS-3, KFMM 310335Z AUTO 00000KT 10SM CLR 05/M03 A3040 RMK AO2 T00511032 Follow KFMM on AV Mobile Fort Morgan Municipal Airport 132.950 970-867-4823
KGNBFAA ID GNB, AWOS-1 Granby-Grand County Airport 119.925 970-887-1803
KGJTFAA ID GJT, ASOS, KGJT 310253Z 08005KT 10SM CLR 08/M05 A3022 Follow KGJT on AV Mobile GRAND JUNCTION WALKER FIELD 118.550 970-245-7881
KGXYFAA ID GXY, AWOS-3, KGXY 310335Z AUTO 08006KT 10SM CLR 06/M04 A3040 RMK AO1 Follow KGXY on AV Mobile Greeley, Greeley-Weld County Airport 135.175 970-352-3511
K2V9ICAO ID K2V9 Gunnison Aviation Weather Reporting Station
KGUCFAA ID GUC, AWOS-3, KGUC 310335Z AUTO 00000KT 10SM CLR 02/M08 A3042 RMK AO1 Follow KGUC on AV Mobile Gunnison, Gunnison-Crested Butte Regional Airport 135.075 970-641-3240
KHDNFAA ID HDN, AWOS-3, KHDN 310335Z AUTO 09009KT 10SM CLR 07/M03 A3033 RMK AO1 Follow KHDN on AV Mobile Hayden, Yampa Valley Airport 119.275 970-276-3690
KHEQFAA ID HEQ, AWOS-3, KHEQ 310335Z AUTO 05006KT 10SM CLR 04/M01 A3041 RMK AO2 Follow KHEQ on AV Mobile Holyoke Airport 119.275 970-854-3679
K20VFAA ID 20V, AWOS-3, K20V 310335Z AUTO 00000KT 10SM CLR 01/M03 A3041 RMK AO2 Follow K20V on AV Mobile Kremmling, Mc Elroy Airfield 118.425 970-724-9659
KLHXFAA ID LHX, ASOS, KLHX 310253Z AUTO 09005KT 10SM CLR 10/M03 A3036 RMK AO2 SLP265 T01001033 51019 Follow KLHX on AV Mobile LA JUNTA MUNICIPAL AIRPORT 135.525 719-384-5961
KVTPFAA ID VTP, AWOS-3, KVTP 310327Z AUTO 01009KT 10SM CLR 00/M06 A3054 RMK AO2 Follow KVTP on AV Mobile La Veta Mountain, La Veta Pass 119.925 719-587-3120
KLAAFAA ID LAA, ASOS, KLAA 310253Z AUTO 20004KT 8SM CLR 06/M03 A3034 RMK AO2 SLP268 T00611033 51016 Follow KLAA on AV Mobile LAMAR MUNICIPAL AIRPORT 135.625 719-336-3854
KLXVFAA ID LXV, ASOS, KLXV 310253Z AUTO 00000KT 10SM CLR M01/M09 A3048 Follow KLXV on AV Mobile LEADVILLE LAKE CO 118.375 719-486-2735
KLICFAA ID LIC, ASOS, KLIC 310255Z AUTO 29004KT 10SM CLR 03/M04 A3040 RMK AO2 SLP286 T00281044 51014 Follow KLIC on AV Mobile LIMON MUNICIPAL AIRPORT 121.125 719-775-0515
KLMOFAA ID LMO, AWOS-3, KLMO 310333Z AUTO 24004KT 10SM CLR 05/M01 A3041 RMK AO2 T00491007 Follow KLMO on AV Mobile Vance Brand Airport 120.000 303-684-7545
KEEOFAA ID EEO, ASOS, KEEO 310253Z AUTO 08006KT 10SM CLR 07/M02 A3032 RMK AO2 SLP253 T00671017 51006 Follow KEEO on AV Mobile MEEKER AIRPORT 135.525 970-878-5036
KMYPFAA ID MYP, AWOS-3, KMYP 310307Z AUTO 28003KT 10SM CLR 03/M10 A3069 RMK AO2 Follow KMYP on AV Mobile Salida Mountain, Monarch Pass 124.175 719-539-4436
KMTJFAA ID MTJ, ASOS, KMTJ 310253Z AUTO 15009KT 10SM CLR 08/M02 A3030 RMK AO2 SLP239 T00781022 53009 Follow KMTJ on AV Mobile MONTROSE REGIONAL AIRPORT 135.225 970-249-1534
KMNHFAA ID MNH, AWOS-3, KMNH 310332Z AUTO 14008KT 10SM CLR 02/M05 A3044 RMK AO2 Follow KMNH on AV Mobile Elbert Mountain, Monument Pass 134.375 303-648-3479
K3MWFAA ID 3MW, AWOS-3, K3MW 211630Z AUTO RMK AO2 TSNO PWINO Follow K3MW on AV Mobile Mount Werner 127.125 970-871-5640
KCRVICAO ID KCRV Nederland Mountain, Corona Pass
KAIBFAA ID AIB, AWOS-3, KAIB 310335Z AUTO 10008KT 10SM CLR 09/M05 A3031 RMK AO2 Follow KAIB on AV Mobile Hopkins Field Airport 132.525 970-864-2325
KPSOFAA ID PSO, AWOS-3, KPSO 310335Z AUTO 00000KT 10SM CLR 06/M07 A3040 RMK AO2 T00641074 Follow KPSO on AV Mobile Stevens Field Airport 127.175 970-731-0365
KPEFICAO ID KPEF Peterson Air Force Base
KPUXICAO ID KPUX Pueblo NEXRAD
KPUBFAA ID PUB, ASOS, KPUB 310253Z 00000KT 10SM CLR 09/M04 A3037 Follow KPUB on AV Mobile PUEBLO MEMORIAL AIRPORT 125.250 719-948-2803
K1V1ICAO ID K1V1 Rifle Aviation Weather Reporting Station
KRILFAA ID RIL, ASOS, KRIL 310253Z AUTO 13006KT 10SM CLR 08/M03 A3028 RMK AO2 SLP249 T00781028 53008 Follow KRIL on AV Mobile RIFLE GARFIELD COUNTY RGNL 135.275 970-625-2206
K04VFAA ID 04V, AWOS-3, K04V 310331Z AUTO 33008KT 10SM CLR 03/M08 A3040 RMK AO2 Follow K04V on AV Mobile Saguache, Saguache Municipal Airport 118.625 719-655-2229
KS29ICAO ID KS29 Salida
KANKFAA ID ANK, AWOS-3, KANK 310335Z AUTO 11005KT 10SM CLR 08/M05 A3052 RMK AO1 T00751052 Follow KANK on AV Mobile Harriet Alexander Field Airport 133.850 719-539-5268
KSPDICAO ID KSPD, KSPD 310256Z AUTO 04003KT 06/M04 A3037 RMK AO1 SLP267 T00561039 51017 Follow KSPD on AV Mobile SPRINGFIELD COMANCHE NATL
KSBSFAA ID SBS, AWOS-3, KSBS 310335Z AUTO 00000KT 10SM CLR 05/M02 A3035 RMK AO1 T00511024 Follow KSBS on AV Mobile Steamboat Springs 118.325 970-879-7794
KSTKFAA ID STK, AWOS-3, KSTK 301825Z AUTO 01003KT 10SM CLR 18/00 A3032 RMK AO2 Follow KSTK on AV Mobile Sterling Municipal Airport 118.525 970-526-3009
K5SMFAA ID 5SM, AWOS-3, K5SM 310339Z AUTO 00000KT 10SM CLR 06/M07 A3054 RMK AO2 Follow K5SM on AV Mobile Sunlight 126.075 970-384-3380
KTEXFAA ID TEX, AWOS-3, KTEX 310335Z AUTO 12006KT 10SM CLR 07/M08 A3046 RMK AO2 T00741076 Follow KTEX on AV Mobile Telluride, Telluride Regional Airport 118.325 970-728-1534
KTADFAA ID TAD, ASOS, KTAD 310254Z AUTO 00000KT 10SM CLR 07/M05 A3040 RMK AO2 SLP274 T00721050 51021 Follow KTAD on AV Mobile Trinidad, Perry Stokes Airport 119.025 719-845-1156
K33VFAA ID 33V, AWOS-3, K33V 310335Z AUTO 12006KT 10SM CLR M01/M04 A3041 RMK AO2 Follow K33V on AV Mobile WALDEN 118.625 970-723-4513
4V1FAA ID 4V1, AWOS-3, K2V5 310355Z AUTO 06004KT 10SM CLR 06/M02 A3041 RMK AO2 T00581016 Follow  on AV Mobile Spanish Peaks Airfield 123.600 719-738-1053
K4BMFAA ID 4BM, AWOS-3, K4BM 260156Z AUTO 20008KT 7SM RA SCT035 SCT055 BKN090 08/03 A3056 RMK AO2 Follow K4BM on AV Mobile Wilkerson Pass 132.3 303-512-4418
KC96ICAO ID KC96 Winter Park Resort
KCPWFAA ID CPW, AWOS-3, KCPW 310311Z AUTO 22011KT 10SM CLR 02/M09 A3059 RMK AO2 Follow KCPW on AV Mobile Pagosa Springs, Wolf Creek Pass 121.125 970-264-2180
K2V5FAA ID 2V5, AWOS-3, K2V5 310335Z AUTO 08004KT 10SM CLR 06/M01 A3040 RMK AO2 T00641015 Follow K2V5 on AV Mobile Wray Municipal Airport 118.250 970-332-5930

Click on the AV Mobile icon AV Mobile icon by any station to follow that AWOS feed on AirportView.net Mobile.

Legend: Commercial service airport with AWOS Commercial Airport AWOSNon-Commercial service airport with AWOS Non-Commercial Airport AWOS
Airport AWOS - Click symbol for weather report Fort Morgan Municipal Airport KFMM 310335Z AUTO 00000KT 10SM CLR 05/M03 A3040 RMK AO2 T00511032 Hopkins Field Airport KAIB 310335Z AUTO 10008KT 10SM CLR 09/M05 A3031 RMK AO2 Telluride, Telluride Regional Airport KTEX 310335Z AUTO 12006KT 10SM CLR 07/M08 A3046 RMK AO2 T00741076 Greeley, Greeley-Weld County Airport KGXY 310335Z AUTO 08006KT 10SM CLR 06/M04 A3040 RMK AO1 Front Range Airport KFTG 310340Z AUTO 15009KT 10SM CLR 06/M01 A3040 RMK AO2 Rocky Mountain Metro Airport KBJC 310251Z 00000KT 30SM SKC 10/M02 A3040 DENVER CENTENNIAL AIRPORT KAPA 310253Z 16008KT 10SM FEW140 08/M03 A3040 RMK AO2 SLP285 T00831028 51012 DENVER INTERNATIONAL AIRPORT KDEN 310253Z 16009KT 10SM CLR 05/M03 A3039 Fort Collins/Loveland, Fort Collins-Loveland Municipal Airport KFNL 310335Z AUTO 21003KT 10SM CLR 09/M02 A3041 RMK AO1 Boulder Municipal Airport KBDU 310336Z AUTO 00000KT 10SM CLR 07/M02 A3040 RMK AO2 Vance Brand Airport KLMO 310333Z AUTO 24004KT 10SM CLR 05/M01 A3041 RMK AO2 T00491007 Sterling Municipal Airport KSTK 301825Z AUTO 01003KT 10SM CLR 18/00 A3032 RMK AO2 Holyoke Airport KHEQ 310335Z AUTO 05006KT 10SM CLR 04/M01 A3041 RMK AO2 COLORADO PLAINS REGIONAL KAKO 310253Z AUTO 08005KT 10SM CLR 08/M03 A3039 RMK AO2 SLP288 T00781028 51014 Kit Carson County Airport KITR 310253Z AUTO 03008KT 10SM CLR 08/M04 A3039 RMK AO2 SLP279 T00831039 52016 LIMON MUNICIPAL AIRPORT KLIC 310255Z AUTO 29004KT 10SM CLR 03/M04 A3040 RMK AO2 SLP286 T00281044 51014 COLORADO SPRINGS MUNI KCOS 310254Z 00000KT 10SM CLR 09/M04 A3043 LAMAR MUNICIPAL AIRPORT KLAA 310253Z AUTO 20004KT 8SM CLR 06/M03 A3034 RMK AO2 SLP268 T00611033 51016 LA JUNTA MUNICIPAL AIRPORT KLHX 310253Z AUTO 09005KT 10SM CLR 10/M03 A3036 RMK AO2 SLP265 T01001033 51019 Trinidad, Perry Stokes Airport KTAD 310254Z AUTO 00000KT 10SM CLR 07/M05 A3040 RMK AO2 SLP274 T00721050 51021 PUEBLO MEMORIAL AIRPORT KPUB 310253Z 00000KT 10SM CLR 09/M04 A3037 CANON CITY 1V6 SAN LUIS VALLEY REGIONAL KALS 310252Z AUTO 10006KT 10SM CLR 04/M07 A3036 Saguache, Saguache Municipal Airport K04V 310331Z AUTO 33008KT 10SM CLR 03/M08 A3040 RMK AO2 Granby-Grand County Airport KGNB WALDEN 33V Steamboat Springs KSBS 310335Z AUTO 00000KT 10SM CLR 05/M02 A3035 RMK AO1 T00511024 Hayden, Yampa Valley Airport KHDN 310335Z AUTO 09009KT 10SM CLR 07/M03 A3033 RMK AO1 Kremmling, Mc Elroy Airfield K20V 310335Z AUTO 00000KT 10SM CLR 01/M03 A3041 RMK AO2 LEADVILLE LAKE CO KLXV 310253Z AUTO 00000KT 10SM CLR M01/M09 A3048 Eagle County Regional KEGE 310335Z AUTO 12003KT 10SM CLR 04/M04 A3038 CRAIG MOFFAT AIRPORT KCAG 310253Z AUTO 00000KT 10SM CLR 02/M02 A3033 MEEKER AIRPORT KEEO 310253Z AUTO 08006KT 10SM CLR 07/M02 A3032 RMK AO2 SLP253 T00671017 51006 ASPEN-PITKIN COUNTY AIRPORT KASE 310253Z AUTO 21007KT 10SM CLR 04/M05 A3039 Gunnison, Gunnison-Crested Butte Regional Airport KGUC 310335Z AUTO 00000KT 10SM CLR 02/M08 A3042 RMK AO1 DURANGO-LA PLATA COUNTY AIRPORT  KDRO 310253Z AUTO 02004KT 10SM CLR 07/M03 A3032 RMK AO2 SLP264 T00671033 52005 Stevens Field Airport KPSO 310335Z AUTO 00000KT 10SM CLR 06/M07 A3040 RMK AO2 T00641074 CORTEZ MONTEZUMA COUNTY AIRPORT  KCEZ 310253Z AUTO 08008KT 10SM CLR 05/M04 A3028 RMK AO2 SLP240 T00501044 53006 MONTROSE REGIONAL AIRPORT KMTJ 310253Z AUTO 15009KT 10SM CLR 08/M02 A3030 RMK AO2 SLP239 T00781022 53009 RIFLE GARFIELD COUNTY RGNL KRIL 310253Z AUTO 13006KT 10SM CLR 08/M03 A3028 RMK AO2 SLP249 T00781028 53008 GRAND JUNCTION WALKER FIELD KGJT 310253Z 08005KT 10SM CLR 08/M05 A3022 Blake Field Airport KAJZ 310335Z AUTO 07003KT 10SM CLR 09/M04 A3027 RMK AO2 T00901045 Central Colorado Regional Airport KAEJ 310335Z AUTO 07005KT 10SM CLR 05/M06 A3046 RMK AO2 T00491060 Harriet Alexander Field Airport KANK 310335Z AUTO 11005KT 10SM CLR 08/M05 A3052 RMK AO1 T00751052 Erie Municipal Airport KEIK 310335Z AUTO 00000KT 10SM CLR 04/M02 A3039 RMK AO2 T00431016 Wray Municipal Airport K2V5 310335Z AUTO 08004KT 10SM CLR 06/M01 A3040 RMK AO2 T00641015
Legend: High Mountain AWOS Mountain Pass AWOS
Mountain Pass AWOS - Click symbol for weather report Pagosa Springs, Wolf Creek Pass KCPW 310311Z AUTO 22011KT 10SM CLR 02/M09 A3059 RMK AO2 Saguache, Saguache Municipal Airport K04V 310331Z AUTO 33008KT 10SM CLR 03/M08 A3040 RMK AO2 Kremmling, Mc Elroy Airfield K20V 310335Z AUTO 00000KT 10SM CLR 01/M03 A3041 RMK AO2 La Veta Mountain, La Veta Pass KVTP 310327Z AUTO 01009KT 10SM CLR 00/M06 A3054 RMK AO2 Salida Mountain, Monarch Pass KMYP 310307Z AUTO 28003KT 10SM CLR 03/M10 A3069 RMK AO2 Cottonwood Pass K7BM 310334Z AUTO 00000KT 10SM CLR 06/M08 A3051 RMK AO2 Elbert Mountain, Monument Pass KMNH 310332Z AUTO 14008KT 10SM CLR 02/M05 A3044 RMK AO2 Wilkerson Pass K4BM 260156Z AUTO 20008KT 7SM RA SCT035 SCT055 BKN090 08/03 A3056 RMK AO2 Copper Mountain, Red Cliff Pass KCCU 310337Z AUTO 17014KT CLR 03/M09 A3058 RMK AO2 PWINO EMPIRE 0CO Sunlight K5SM 310339Z AUTO 00000KT 10SM CLR 06/M07 A3054 RMK AO2 Mount Werner K3MW 211630Z AUTO RMK AO2 TSNO PWINO
Garmin aera 796 $1999 at Avionics Specialists LLC
Bose A20 Aviation Headsets $995 at Avionics Specialists LLC